sensor_id;sensor_type;location;lat;lon;timestamp;P1;durP1;ratioP1;P2;durP2;ratioP2
34497;SDS011;20744;50.938;7.286;2022-11-25T00:00:33;21.65;;;4.75;;
34497;SDS011;20744;50.938;7.286;2022-11-25T00:03:00;17.65;;;4.22;;
34497;SDS011;20744;50.938;7.286;2022-11-25T00:05:29;20.73;;;3.83;;
34497;SDS011;20744;50.938;7.286;2022-11-25T00:07:56;22.48;;;4.07;;
34497;SDS011;20744;50.938;7.286;2022-11-25T00:10:23;20.17;;;3.80;;
34497;SDS011;20744;50.938;7.286;2022-11-25T00:12:51;15.80;;;3.72;;
34497;SDS011;20744;50.938;7.286;2022-11-25T00:15:18;14.05;;;3.97;;
34497;SDS011;20744;50.938;7.286;2022-11-25T00:17:45;19.98;;;3.60;;
34497;SDS011;20744;50.938;7.286;2022-11-25T00:20:12;16.65;;;3.92;;
34497;SDS011;20744;50.938;7.286;2022-11-25T00:22:41;19.10;;;4.03;;
34497;SDS011;20744;50.938;7.286;2022-11-25T00:25:08;29.25;;;4.82;;
34497;SDS011;20744;50.938;7.286;2022-11-25T00:27:35;20.55;;;3.75;;
34497;SDS011;20744;50.938;7.286;2022-11-25T00:30:03;26.52;;;4.57;;
34497;SDS011;20744;50.938;7.286;2022-11-25T00:32:31;14.27;;;3.83;;
34497;SDS011;20744;50.938;7.286;2022-11-25T00:34:58;20.77;;;4.15;;
34497;SDS011;20744;50.938;7.286;2022-11-25T00:37:25;19.90;;;4.20;;
34497;SDS011;20744;50.938;7.286;2022-11-25T00:39:54;20.92;;;4.05;;
34497;SDS011;20744;50.938;7.286;2022-11-25T00:42:21;17.10;;;4.07;;
34497;SDS011;20744;50.938;7.286;2022-11-25T00:45:06;20.85;;;4.35;;
34497;SDS011;20744;50.938;7.286;2022-11-25T00:47:34;22.88;;;4.05;;
34497;SDS011;20744;50.938;7.286;2022-11-25T00:50:01;20.58;;;3.60;;
34497;SDS011;20744;50.938;7.286;2022-11-25T00:52:28;14.32;;;3.55;;
34497;SDS011;20744;50.938;7.286;2022-11-25T00:55:02;15.88;;;3.90;;
34497;SDS011;20744;50.938;7.286;2022-11-25T00:57:29;17.83;;;4.30;;
34497;SDS011;20744;50.938;7.286;2022-11-25T00:59:57;15.75;;;3.30;;
34497;SDS011;20744;50.938;7.286;2022-11-25T01:02:24;20.95;;;3.85;;
34497;SDS011;20744;50.938;7.286;2022-11-25T01:04:51;15.43;;;3.67;;
34497;SDS011;20744;50.938;7.286;2022-11-25T01:07:18;19.52;;;4.10;;
34497;SDS011;20744;50.938;7.286;2022-11-25T01:09:46;19.17;;;3.97;;
34497;SDS011;20744;50.938;7.286;2022-11-25T01:12:16;17.67;;;4.43;;
34497;SDS011;20744;50.938;7.286;2022-11-25T01:14:43;20.52;;;4.00;;
34497;SDS011;20744;50.938;7.286;2022-11-25T01:17:10;21.92;;;4.30;;
34497;SDS011;20744;50.938;7.286;2022-11-25T01:19:37;19.55;;;4.15;;
34497;SDS011;20744;50.938;7.286;2022-11-25T01:22:06;22.35;;;3.50;;
34497;SDS011;20744;50.938;7.286;2022-11-25T01:24:33;18.30;;;3.60;;
34497;SDS011;20744;50.938;7.286;2022-11-25T01:27:00;21.73;;;3.60;;
34497;SDS011;20744;50.938;7.286;2022-11-25T01:29:29;28.20;;;4.13;;
34497;SDS011;20744;50.938;7.286;2022-11-25T01:31:56;19.70;;;4.13;;
34497;SDS011;20744;50.938;7.286;2022-11-25T01:34:24;19.52;;;4.30;;
34497;SDS011;20744;50.938;7.286;2022-11-25T01:36:51;21.38;;;4.18;;
34497;SDS011;20744;50.938;7.286;2022-11-25T01:39:19;25.48;;;4.70;;
34497;SDS011;20744;50.938;7.286;2022-11-25T01:41:47;14.88;;;3.95;;
34497;SDS011;20744;50.938;7.286;2022-11-25T01:44:15;26.42;;;4.88;;
34497;SDS011;20744;50.938;7.286;2022-11-25T01:49:33;22.73;;;4.85;;
34497;SDS011;20744;50.938;7.286;2022-11-25T01:52:02;21.60;;;4.53;;
34497;SDS011;20744;50.938;7.286;2022-11-25T01:54:32;19.67;;;4.00;;
34497;SDS011;20744;50.938;7.286;2022-11-25T01:57:00;19.15;;;4.15;;
34497;SDS011;20744;50.938;7.286;2022-11-25T01:59:29;21.58;;;4.15;;
34497;SDS011;20744;50.938;7.286;2022-11-25T02:01:58;17.45;;;3.90;;
34497;SDS011;20744;50.938;7.286;2022-11-25T02:04:27;17.75;;;4.47;;
34497;SDS011;20744;50.938;7.286;2022-11-25T02:07:00;15.00;;;3.83;;
34497;SDS011;20744;50.938;7.286;2022-11-25T02:09:29;15.88;;;3.65;;
34497;SDS011;20744;50.938;7.286;2022-11-25T02:11:56;19.45;;;4.35;;
34497;SDS011;20744;50.938;7.286;2022-11-25T02:14:24;23.92;;;4.35;;
34497;SDS011;20744;50.938;7.286;2022-11-25T02:16:52;25.98;;;5.07;;
34497;SDS011;20744;50.938;7.286;2022-11-25T02:19:21;19.40;;;4.15;;
34497;SDS011;20744;50.938;7.286;2022-11-25T02:21:50;21.65;;;3.88;;
34497;SDS011;20744;50.938;7.286;2022-11-25T02:24:21;18.98;;;3.80;;
34497;SDS011;20744;50.938;7.286;2022-11-25T02:26:52;19.38;;;3.58;;
34497;SDS011;20744;50.938;7.286;2022-11-25T02:29:20;19.17;;;4.45;;
34497;SDS011;20744;50.938;7.286;2022-11-25T02:31:48;17.02;;;3.55;;
34497;SDS011;20744;50.938;7.286;2022-11-25T02:34:15;20.75;;;4.45;;
34497;SDS011;20744;50.938;7.286;2022-11-25T02:36:43;23.02;;;4.35;;
34497;SDS011;20744;50.938;7.286;2022-11-25T02:39:10;17.23;;;4.00;;
34497;SDS011;20744;50.938;7.286;2022-11-25T02:41:38;16.33;;;3.88;;
34497;SDS011;20744;50.938;7.286;2022-11-25T02:44:08;22.00;;;3.58;;
34497;SDS011;20744;50.938;7.286;2022-11-25T02:46:35;15.77;;;3.55;;
34497;SDS011;20744;50.938;7.286;2022-11-25T02:49:03;17.50;;;4.05;;
34497;SDS011;20744;50.938;7.286;2022-11-25T02:51:30;14.35;;;3.63;;
34497;SDS011;20744;50.938;7.286;2022-11-25T02:53:58;19.50;;;4.10;;
34497;SDS011;20744;50.938;7.286;2022-11-25T02:56:26;25.83;;;3.83;;
34497;SDS011;20744;50.938;7.286;2022-11-25T02:58:54;16.80;;;3.70;;
34497;SDS011;20744;50.938;7.286;2022-11-25T03:01:22;20.38;;;4.30;;
34497;SDS011;20744;50.938;7.286;2022-11-25T03:03:49;23.92;;;3.88;;
34497;SDS011;20744;50.938;7.286;2022-11-25T03:06:17;15.10;;;3.58;;
34497;SDS011;20744;50.938;7.286;2022-11-25T03:08:44;16.15;;;3.95;;
34497;SDS011;20744;50.938;7.286;2022-11-25T03:11:11;16.75;;;3.55;;
34497;SDS011;20744;50.938;7.286;2022-11-25T03:13:39;18.88;;;3.72;;
34497;SDS011;20744;50.938;7.286;2022-11-25T03:16:06;17.75;;;3.42;;
34497;SDS011;20744;50.938;7.286;2022-11-25T03:18:35;20.65;;;3.70;;
34497;SDS011;20744;50.938;7.286;2022-11-25T03:21:02;18.40;;;3.47;;
34497;SDS011;20744;50.938;7.286;2022-11-25T03:23:29;15.38;;;2.90;;
34497;SDS011;20744;50.938;7.286;2022-11-25T03:25:57;17.13;;;3.15;;
34497;SDS011;20744;50.938;7.286;2022-11-25T03:28:24;17.25;;;3.58;;
34497;SDS011;20744;50.938;7.286;2022-11-25T03:30:51;19.15;;;3.70;;
34497;SDS011;20744;50.938;7.286;2022-11-25T03:33:18;17.10;;;3.17;;
34497;SDS011;20744;50.938;7.286;2022-11-25T03:35:48;14.93;;;3.17;;
34497;SDS011;20744;50.938;7.286;2022-11-25T03:38:15;17.17;;;3.53;;
34497;SDS011;20744;50.938;7.286;2022-11-25T03:40:42;19.13;;;3.38;;
34497;SDS011;20744;50.938;7.286;2022-11-25T03:43:11;25.10;;;3.50;;
34497;SDS011;20744;50.938;7.286;2022-11-25T03:45:38;17.08;;;3.53;;
34497;SDS011;20744;50.938;7.286;2022-11-25T03:48:05;19.20;;;3.30;;
34497;SDS011;20744;50.938;7.286;2022-11-25T03:50:33;20.40;;;3.63;;
34497;SDS011;20744;50.938;7.286;2022-11-25T03:53:01;23.23;;;3.80;;
34497;SDS011;20744;50.938;7.286;2022-11-25T03:55:28;17.38;;;3.78;;
34497;SDS011;20744;50.938;7.286;2022-11-25T03:57:56;15.85;;;3.30;;
34497;SDS011;20744;50.938;7.286;2022-11-25T04:00:23;15.57;;;3.00;;
34497;SDS011;20744;50.938;7.286;2022-11-25T04:02:50;19.13;;;3.22;;
34497;SDS011;20744;50.938;7.286;2022-11-25T04:05:17;15.05;;;3.33;;
34497;SDS011;20744;50.938;7.286;2022-11-25T04:07:44;20.10;;;4.00;;
34497;SDS011;20744;50.938;7.286;2022-11-25T04:10:13;20.00;;;3.05;;
34497;SDS011;20744;50.938;7.286;2022-11-25T04:12:40;13.13;;;2.95;;
34497;SDS011;20744;50.938;7.286;2022-11-25T04:15:13;16.67;;;2.97;;
34497;SDS011;20744;50.938;7.286;2022-11-25T04:17:40;15.80;;;3.00;;
34497;SDS011;20744;50.938;7.286;2022-11-25T04:20:08;15.73;;;3.38;;
34497;SDS011;20744;50.938;7.286;2022-11-25T04:22:35;10.70;;;2.85;;
34497;SDS011;20744;50.938;7.286;2022-11-25T04:25:03;13.13;;;2.58;;
34497;SDS011;20744;50.938;7.286;2022-11-25T04:27:32;16.15;;;2.97;;
34497;SDS011;20744;50.938;7.286;2022-11-25T04:29:59;16.33;;;2.95;;
34497;SDS011;20744;50.938;7.286;2022-11-25T04:32:26;19.58;;;3.15;;
34497;SDS011;20744;50.938;7.286;2022-11-25T04:34:53;18.30;;;3.35;;
34497;SDS011;20744;50.938;7.286;2022-11-25T04:37:21;13.32;;;3.08;;
34497;SDS011;20744;50.938;7.286;2022-11-25T04:39:48;17.67;;;3.17;;
34497;SDS011;20744;50.938;7.286;2022-11-25T04:42:15;17.02;;;3.75;;
34497;SDS011;20744;50.938;7.286;2022-11-25T04:45:00;16.30;;;3.42;;
34497;SDS011;20744;50.938;7.286;2022-11-25T04:47:28;17.35;;;2.95;;
34497;SDS011;20744;50.938;7.286;2022-11-25T04:49:56;15.02;;;3.25;;
34497;SDS011;20744;50.938;7.286;2022-11-25T04:52:23;20.20;;;4.28;;
34497;SDS011;20744;50.938;7.286;2022-11-25T04:54:50;19.02;;;4.55;;
34497;SDS011;20744;50.938;7.286;2022-11-25T04:57:18;9.77;;;3.05;;
34497;SDS011;20744;50.938;7.286;2022-11-25T04:59:45;16.00;;;3.67;;
34497;SDS011;20744;50.938;7.286;2022-11-25T05:02:14;14.30;;;3.10;;
34497;SDS011;20744;50.938;7.286;2022-11-25T05:04:43;18.98;;;3.97;;
34497;SDS011;20744;50.938;7.286;2022-11-25T05:07:10;22.92;;;3.40;;
34497;SDS011;20744;50.938;7.286;2022-11-25T05:09:38;12.25;;;3.17;;
34497;SDS011;20744;50.938;7.286;2022-11-25T05:12:05;14.60;;;3.00;;
34497;SDS011;20744;50.938;7.286;2022-11-25T05:14:33;15.18;;;3.47;;
34497;SDS011;20744;50.938;7.286;2022-11-25T05:17:00;15.38;;;3.40;;
34497;SDS011;20744;50.938;7.286;2022-11-25T05:19:29;26.77;;;3.85;;
34497;SDS011;20744;50.938;7.286;2022-11-25T05:21:57;19.98;;;3.35;;
34497;SDS011;20744;50.938;7.286;2022-11-25T05:24:24;18.13;;;3.65;;
34497;SDS011;20744;50.938;7.286;2022-11-25T05:26:51;14.73;;;3.60;;
34497;SDS011;20744;50.938;7.286;2022-11-25T05:29:19;20.42;;;3.92;;
34497;SDS011;20744;50.938;7.286;2022-11-25T05:31:46;16.88;;;3.72;;
34497;SDS011;20744;50.938;7.286;2022-11-25T05:34:13;24.13;;;4.80;;
34497;SDS011;20744;50.938;7.286;2022-11-25T05:36:42;17.00;;;4.32;;
34497;SDS011;20744;50.938;7.286;2022-11-25T05:39:09;18.23;;;4.32;;
34497;SDS011;20744;50.938;7.286;2022-11-25T05:41:36;22.05;;;4.38;;
34497;SDS011;20744;50.938;7.286;2022-11-25T05:44:04;21.08;;;3.95;;
34497;SDS011;20744;50.938;7.286;2022-11-25T05:46:31;13.60;;;4.70;;
34497;SDS011;20744;50.938;7.286;2022-11-25T05:48:58;21.55;;;4.88;;
34497;SDS011;20744;50.938;7.286;2022-11-25T05:51:26;17.10;;;4.07;;
34497;SDS011;20744;50.938;7.286;2022-11-25T05:53:54;15.65;;;3.88;;
34497;SDS011;20744;50.938;7.286;2022-11-25T05:56:22;22.10;;;4.72;;
34497;SDS011;20744;50.938;7.286;2022-11-25T05:58:49;18.35;;;4.47;;
34497;SDS011;20744;50.938;7.286;2022-11-25T06:01:18;20.98;;;4.78;;
34497;SDS011;20744;50.938;7.286;2022-11-25T06:03:46;20.92;;;4.38;;
34497;SDS011;20744;50.938;7.286;2022-11-25T06:06:13;18.48;;;4.45;;
34497;SDS011;20744;50.938;7.286;2022-11-25T06:08:40;19.42;;;4.40;;
34497;SDS011;20744;50.938;7.286;2022-11-25T06:11:09;18.98;;;4.97;;
34497;SDS011;20744;50.938;7.286;2022-11-25T06:13:37;19.55;;;4.85;;
34497;SDS011;20744;50.938;7.286;2022-11-25T06:16:05;22.05;;;4.68;;
34497;SDS011;20744;50.938;7.286;2022-11-25T06:18:33;21.48;;;5.13;;
34497;SDS011;20744;50.938;7.286;2022-11-25T06:21:01;22.42;;;4.72;;
34497;SDS011;20744;50.938;7.286;2022-11-25T06:23:28;22.77;;;4.85;;
34497;SDS011;20744;50.938;7.286;2022-11-25T06:26:01;27.25;;;5.28;;
34497;SDS011;20744;50.938;7.286;2022-11-25T06:28:29;22.20;;;5.10;;
34497;SDS011;20744;50.938;7.286;2022-11-25T06:31:02;16.55;;;4.25;;
34497;SDS011;20744;50.938;7.286;2022-11-25T06:33:30;23.98;;;5.28;;
34497;SDS011;20744;50.938;7.286;2022-11-25T06:35:57;18.17;;;4.57;;
34497;SDS011;20744;50.938;7.286;2022-11-25T06:38:24;29.35;;;5.35;;
34497;SDS011;20744;50.938;7.286;2022-11-25T06:40:51;22.42;;;5.50;;
34497;SDS011;20744;50.938;7.286;2022-11-25T06:43:18;21.77;;;5.10;;
34497;SDS011;20744;50.938;7.286;2022-11-25T06:45:47;19.27;;;5.80;;
34497;SDS011;20744;50.938;7.286;2022-11-25T06:48:14;23.65;;;5.47;;
34497;SDS011;20744;50.938;7.286;2022-11-25T06:50:41;16.90;;;5.18;;
34497;SDS011;20744;50.938;7.286;2022-11-25T06:53:09;18.13;;;5.50;;
34497;SDS011;20744;50.938;7.286;2022-11-25T06:55:36;23.45;;;5.53;;
34497;SDS011;20744;50.938;7.286;2022-11-25T06:58:03;25.60;;;5.28;;
34497;SDS011;20744;50.938;7.286;2022-11-25T07:00:31;16.00;;;5.13;;
34497;SDS011;20744;50.938;7.286;2022-11-25T07:02:59;26.42;;;5.28;;
34497;SDS011;20744;50.938;7.286;2022-11-25T07:05:26;27.73;;;5.35;;
34497;SDS011;20744;50.938;7.286;2022-11-25T07:07:55;20.35;;;5.20;;
34497;SDS011;20744;50.938;7.286;2022-11-25T07:10:22;25.95;;;6.53;;
34497;SDS011;20744;50.938;7.286;2022-11-25T07:12:49;23.77;;;5.57;;
34497;SDS011;20744;50.938;7.286;2022-11-25T07:15:17;22.02;;;5.03;;
34497;SDS011;20744;50.938;7.286;2022-11-25T07:17:44;22.20;;;4.90;;
34497;SDS011;20744;50.938;7.286;2022-11-25T07:20:13;22.63;;;5.35;;
34497;SDS011;20744;50.938;7.286;2022-11-25T07:22:40;27.30;;;6.05;;
34497;SDS011;20744;50.938;7.286;2022-11-25T07:25:07;19.48;;;5.25;;
34497;SDS011;20744;50.938;7.286;2022-11-25T07:27:35;20.60;;;4.80;;
34497;SDS011;20744;50.938;7.286;2022-11-25T07:30:02;15.48;;;4.63;;
34497;SDS011;20744;50.938;7.286;2022-11-25T07:32:31;14.38;;;4.70;;
34497;SDS011;20744;50.938;7.286;2022-11-25T07:34:58;21.45;;;4.88;;
34497;SDS011;20744;50.938;7.286;2022-11-25T07:37:27;15.98;;;4.85;;
34497;SDS011;20744;50.938;7.286;2022-11-25T07:39:54;17.88;;;4.25;;
34497;SDS011;20744;50.938;7.286;2022-11-25T07:42:22;23.02;;;5.47;;
34497;SDS011;20744;50.938;7.286;2022-11-25T07:44:49;21.45;;;5.15;;
34497;SDS011;20744;50.938;7.286;2022-11-25T07:47:16;15.43;;;4.05;;
34497;SDS011;20744;50.938;7.286;2022-11-25T07:49:43;21.77;;;4.63;;
34497;SDS011;20744;50.938;7.286;2022-11-25T07:52:11;21.08;;;5.25;;
34497;SDS011;20744;50.938;7.286;2022-11-25T07:54:39;22.23;;;5.10;;
34497;SDS011;20744;50.938;7.286;2022-11-25T07:57:06;19.45;;;4.63;;
34497;SDS011;20744;50.938;7.286;2022-11-25T07:59:34;16.70;;;4.13;;
34497;SDS011;20744;50.938;7.286;2022-11-25T08:02:05;16.88;;;4.38;;
34497;SDS011;20744;50.938;7.286;2022-11-25T08:04:32;18.60;;;5.45;;
34497;SDS011;20744;50.938;7.286;2022-11-25T08:07:00;16.48;;;5.32;;
34497;SDS011;20744;50.938;7.286;2022-11-25T08:09:27;17.30;;;4.95;;
34497;SDS011;20744;50.938;7.286;2022-11-25T08:11:55;25.45;;;6.45;;
34497;SDS011;20744;50.938;7.286;2022-11-25T08:14:23;17.90;;;5.80;;
34497;SDS011;20744;50.938;7.286;2022-11-25T08:16:50;24.30;;;6.32;;
34497;SDS011;20744;50.938;7.286;2022-11-25T08:19:18;19.50;;;5.63;;
34497;SDS011;20744;50.938;7.286;2022-11-25T08:21:45;24.35;;;6.43;;
34497;SDS011;20744;50.938;7.286;2022-11-25T08:24:13;19.65;;;5.95;;
34497;SDS011;20744;50.938;7.286;2022-11-25T08:26:41;25.48;;;6.15;;
34497;SDS011;20744;50.938;7.286;2022-11-25T08:29:10;19.65;;;5.28;;
34497;SDS011;20744;50.938;7.286;2022-11-25T08:31:38;21.30;;;5.20;;
34497;SDS011;20744;50.938;7.286;2022-11-25T08:34:06;18.92;;;5.25;;
34497;SDS011;20744;50.938;7.286;2022-11-25T08:36:34;20.27;;;5.68;;
34497;SDS011;20744;50.938;7.286;2022-11-25T08:39:03;20.13;;;5.78;;
34497;SDS011;20744;50.938;7.286;2022-11-25T08:41:33;19.13;;;5.63;;
34497;SDS011;20744;50.938;7.286;2022-11-25T08:44:01;23.33;;;5.95;;
34497;SDS011;20744;50.938;7.286;2022-11-25T08:46:30;17.85;;;6.10;;
34497;SDS011;20744;50.938;7.286;2022-11-25T08:49:00;21.60;;;5.55;;
34497;SDS011;20744;50.938;7.286;2022-11-25T08:51:28;18.65;;;5.82;;
34497;SDS011;20744;50.938;7.286;2022-11-25T08:53:56;18.63;;;4.85;;
34497;SDS011;20744;50.938;7.286;2022-11-25T08:56:24;16.92;;;5.47;;
34497;SDS011;20744;50.938;7.286;2022-11-25T08:58:51;25.23;;;5.80;;
34497;SDS011;20744;50.938;7.286;2022-11-25T09:01:19;23.95;;;5.18;;
34497;SDS011;20744;50.938;7.286;2022-11-25T09:03:49;29.08;;;6.10;;
34497;SDS011;20744;50.938;7.286;2022-11-25T09:06:17;19.08;;;4.60;;
34497;SDS011;20744;50.938;7.286;2022-11-25T09:08:45;21.30;;;5.43;;
34497;SDS011;20744;50.938;7.286;2022-11-25T09:11:12;20.63;;;5.55;;
34497;SDS011;20744;50.938;7.286;2022-11-25T09:13:40;16.65;;;4.65;;
34497;SDS011;20744;50.938;7.286;2022-11-25T09:16:07;19.60;;;4.47;;
34497;SDS011;20744;50.938;7.286;2022-11-25T09:18:34;15.80;;;3.90;;
34497;SDS011;20744;50.938;7.286;2022-11-25T09:21:07;16.80;;;4.45;;
34497;SDS011;20744;50.938;7.286;2022-11-25T09:23:35;17.40;;;4.45;;
34497;SDS011;20744;50.938;7.286;2022-11-25T09:26:03;18.52;;;4.53;;
34497;SDS011;20744;50.938;7.286;2022-11-25T09:28:30;15.52;;;4.25;;
34497;SDS011;20744;50.938;7.286;2022-11-25T09:30:58;16.95;;;4.20;;
34497;SDS011;20744;50.938;7.286;2022-11-25T09:33:25;12.38;;;3.88;;
34497;SDS011;20744;50.938;7.286;2022-11-25T09:35:53;10.82;;;3.22;;
34497;SDS011;20744;50.938;7.286;2022-11-25T09:38:21;19.73;;;4.05;;
34497;SDS011;20744;50.938;7.286;2022-11-25T09:40:49;12.68;;;3.65;;
34497;SDS011;20744;50.938;7.286;2022-11-25T09:43:24;12.63;;;3.85;;
34497;SDS011;20744;50.938;7.286;2022-11-25T09:46:12;14.20;;;3.40;;
34497;SDS011;20744;50.938;7.286;2022-11-25T10:10:02;10.48;;;3.05;;
34497;SDS011;20744;50.938;7.286;2022-11-25T10:12:31;10.77;;;2.90;;
34497;SDS011;20744;50.938;7.286;2022-11-25T10:15:02;12.80;;;3.08;;
34497;SDS011;20744;50.938;7.286;2022-11-25T10:20:10;10.40;;;3.05;;
34497;SDS011;20744;50.938;7.286;2022-11-25T10:22:39;12.38;;;2.78;;
34497;SDS011;20744;50.938;7.286;2022-11-25T10:25:13;9.77;;;3.10;;
34497;SDS011;20744;50.938;7.286;2022-11-25T10:27:42;10.32;;;3.08;;
34497;SDS011;20744;50.938;7.286;2022-11-25T10:30:12;12.85;;;3.33;;
34497;SDS011;20744;50.938;7.286;2022-11-25T10:32:42;8.48;;;3.20;;
34497;SDS011;20744;50.938;7.286;2022-11-25T10:35:13;11.57;;;2.70;;
34497;SDS011;20744;50.938;7.286;2022-11-25T10:37:41;10.05;;;2.47;;
34497;SDS011;20744;50.938;7.286;2022-11-25T10:40:14;6.18;;;2.63;;
34497;SDS011;20744;50.938;7.286;2022-11-25T10:42:42;10.82;;;3.10;;
34497;SDS011;20744;50.938;7.286;2022-11-25T10:45:09;11.65;;;3.05;;
34497;SDS011;20744;50.938;7.286;2022-11-25T10:47:45;9.70;;;2.92;;
34497;SDS011;20744;50.938;7.286;2022-11-25T10:50:19;10.15;;;2.65;;
34497;SDS011;20744;50.938;7.286;2022-11-25T10:52:49;11.38;;;2.63;;
34497;SDS011;20744;50.938;7.286;2022-11-25T10:55:19;9.55;;;2.42;;
34497;SDS011;20744;50.938;7.286;2022-11-25T10:57:48;9.07;;;2.70;;
34497;SDS011;20744;50.938;7.286;2022-11-25T11:00:29;10.82;;;2.55;;
34497;SDS011;20744;50.938;7.286;2022-11-25T11:02:56;10.75;;;3.03;;
34497;SDS011;20744;50.938;7.286;2022-11-25T11:05:25;8.45;;;2.10;;
34497;SDS011;20744;50.938;7.286;2022-11-25T11:08:06;10.40;;;2.47;;
34497;SDS011;20744;50.938;7.286;2022-11-25T11:10:36;9.93;;;2.65;;
34497;SDS011;20744;50.938;7.286;2022-11-25T11:13:03;10.52;;;2.35;;
34497;SDS011;20744;50.938;7.286;2022-11-25T11:15:31;10.38;;;2.20;;
34497;SDS011;20744;50.938;7.286;2022-11-25T11:17:59;9.70;;;2.05;;
34497;SDS011;20744;50.938;7.286;2022-11-25T11:20:43;7.90;;;2.20;;
34497;SDS011;20744;50.938;7.286;2022-11-25T11:23:11;9.30;;;1.90;;
34497;SDS011;20744;50.938;7.286;2022-11-25T11:25:41;10.57;;;2.17;;
34497;SDS011;20744;50.938;7.286;2022-11-25T11:28:23;10.25;;;2.05;;
34497;SDS011;20744;50.938;7.286;2022-11-25T11:30:52;13.65;;;2.33;;
34497;SDS011;20744;50.938;7.286;2022-11-25T11:33:29;9.90;;;2.08;;
34497;SDS011;20744;50.938;7.286;2022-11-25T11:36:00;11.90;;;2.30;;
34497;SDS011;20744;50.938;7.286;2022-11-25T11:38:31;6.97;;;1.80;;
34497;SDS011;20744;50.938;7.286;2022-11-25T11:41:04;10.82;;;2.03;;
34497;SDS011;20744;50.938;7.286;2022-11-25T11:43:41;10.65;;;2.17;;
34497;SDS011;20744;50.938;7.286;2022-11-25T11:46:22;13.05;;;2.67;;
34497;SDS011;20744;50.938;7.286;2022-11-25T11:48:53;14.27;;;2.55;;
34497;SDS011;20744;50.938;7.286;2022-11-25T11:51:26;11.35;;;2.60;;
34497;SDS011;20744;50.938;7.286;2022-11-25T11:53:56;8.00;;;2.15;;
34497;SDS011;20744;50.938;7.286;2022-11-25T11:56:31;13.52;;;2.58;;
34497;SDS011;20744;50.938;7.286;2022-11-25T11:59:05;14.60;;;2.30;;
34497;SDS011;20744;50.938;7.286;2022-11-25T12:01:37;11.82;;;2.65;;
34497;SDS011;20744;50.938;7.286;2022-11-25T12:04:12;12.45;;;2.20;;
34497;SDS011;20744;50.938;7.286;2022-11-25T12:06:41;11.23;;;2.60;;
34497;SDS011;20744;50.938;7.286;2022-11-25T12:09:11;10.48;;;2.17;;
34497;SDS011;20744;50.938;7.286;2022-11-25T12:11:41;14.75;;;2.80;;
34497;SDS011;20744;50.938;7.286;2022-11-25T12:14:10;9.77;;;2.42;;
34497;SDS011;20744;50.938;7.286;2022-11-25T12:16:42;19.33;;;2.20;;
34497;SDS011;20744;50.938;7.286;2022-11-25T12:19:12;13.27;;;2.72;;
34497;SDS011;20744;50.938;7.286;2022-11-25T12:21:43;13.32;;;2.35;;
34497;SDS011;20744;50.938;7.286;2022-11-25T12:24:13;16.35;;;2.42;;
34497;SDS011;20744;50.938;7.286;2022-11-25T12:26:46;13.00;;;2.78;;
34497;SDS011;20744;50.938;7.286;2022-11-25T12:29:17;12.88;;;2.88;;
34497;SDS011;20744;50.938;7.286;2022-11-25T12:31:47;18.13;;;3.05;;
34497;SDS011;20744;50.938;7.286;2022-11-25T12:34:19;12.50;;;2.42;;
34497;SDS011;20744;50.938;7.286;2022-11-25T12:36:51;14.55;;;3.67;;
34497;SDS011;20744;50.938;7.286;2022-11-25T12:39:20;21.70;;;3.55;;
34497;SDS011;20744;50.938;7.286;2022-11-25T12:41:53;16.48;;;2.90;;
34497;SDS011;20744;50.938;7.286;2022-11-25T12:44:22;14.07;;;3.13;;
34497;SDS011;20744;50.938;7.286;2022-11-25T12:46:52;17.80;;;3.35;;
34497;SDS011;20744;50.938;7.286;2022-11-25T12:49:21;22.55;;;3.95;;
34497;SDS011;20744;50.938;7.286;2022-11-25T12:52:01;15.20;;;3.72;;
34497;SDS011;20744;50.938;7.286;2022-11-25T12:54:50;16.23;;;3.42;;
34497;SDS011;20744;50.938;7.286;2022-11-25T12:57:25;20.42;;;4.05;;
34497;SDS011;20744;50.938;7.286;2022-11-25T13:00:01;16.00;;;3.42;;
34497;SDS011;20744;50.938;7.286;2022-11-25T13:02:34;19.67;;;3.40;;
34497;SDS011;20744;50.938;7.286;2022-11-25T13:05:12;22.52;;;3.75;;
34497;SDS011;20744;50.938;7.286;2022-11-25T13:07:45;21.35;;;3.47;;
34497;SDS011;20744;50.938;7.286;2022-11-25T13:10:25;20.58;;;3.08;;
34497;SDS011;20744;50.938;7.286;2022-11-25T13:13:00;16.25;;;3.55;;
34497;SDS011;20744;50.938;7.286;2022-11-25T13:15:30;17.90;;;3.72;;
34497;SDS011;20744;50.938;7.286;2022-11-25T13:18:02;22.52;;;3.78;;
34497;SDS011;20744;50.938;7.286;2022-11-25T13:20:46;16.00;;;3.15;;
34497;SDS011;20744;50.938;7.286;2022-11-25T13:23:24;17.65;;;2.90;;
34497;SDS011;20744;50.938;7.286;2022-11-25T13:25:52;17.25;;;2.75;;
34497;SDS011;20744;50.938;7.286;2022-11-25T13:28:29;15.65;;;2.33;;
34497;SDS011;20744;50.938;7.286;2022-11-25T13:36:23;13.63;;;2.90;;
34497;SDS011;20744;50.938;7.286;2022-11-25T13:41:39;16.90;;;2.67;;
34497;SDS011;20744;50.938;7.286;2022-11-25T13:44:13;12.17;;;2.70;;
34497;SDS011;20744;50.938;7.286;2022-11-25T13:46:44;13.93;;;2.85;;
34497;SDS011;20744;50.938;7.286;2022-11-25T13:49:29;20.33;;;2.95;;
34497;SDS011;20744;50.938;7.286;2022-11-25T13:51:58;18.80;;;2.88;;
34497;SDS011;20744;50.938;7.286;2022-11-25T13:54:26;13.95;;;2.80;;
34497;SDS011;20744;50.938;7.286;2022-11-25T13:56:59;12.23;;;2.72;;
34497;SDS011;20744;50.938;7.286;2022-11-25T13:59:46;19.80;;;3.20;;
34497;SDS011;20744;50.938;7.286;2022-11-25T14:02:36;10.95;;;2.55;;
34497;SDS011;20744;50.938;7.286;2022-11-25T14:07:56;18.83;;;2.63;;
34497;SDS011;20744;50.938;7.286;2022-11-25T14:10:37;15.48;;;2.50;;
34497;SDS011;20744;50.938;7.286;2022-11-25T14:16:02;14.63;;;2.70;;
34497;SDS011;20744;50.938;7.286;2022-11-25T14:18:40;13.80;;;2.75;;
34497;SDS011;20744;50.938;7.286;2022-11-25T14:21:11;19.58;;;3.45;;
34497;SDS011;20744;50.938;7.286;2022-11-25T14:23:45;11.68;;;2.58;;
34497;SDS011;20744;50.938;7.286;2022-11-25T14:26:17;17.48;;;2.70;;
34497;SDS011;20744;50.938;7.286;2022-11-25T14:28:47;13.02;;;2.60;;
34497;SDS011;20744;50.938;7.286;2022-11-25T14:31:19;19.83;;;3.08;;
34497;SDS011;20744;50.938;7.286;2022-11-25T14:33:50;13.70;;;2.53;;
34497;SDS011;20744;50.938;7.286;2022-11-25T14:36:18;18.45;;;2.83;;
34497;SDS011;20744;50.938;7.286;2022-11-25T14:38:48;12.77;;;2.80;;
34497;SDS011;20744;50.938;7.286;2022-11-25T14:41:16;15.27;;;3.05;;
34497;SDS011;20744;50.938;7.286;2022-11-25T14:43:45;14.45;;;2.88;;
34497;SDS011;20744;50.938;7.286;2022-11-25T14:46:13;15.13;;;2.70;;
34497;SDS011;20744;50.938;7.286;2022-11-25T14:48:42;18.00;;;3.30;;
34497;SDS011;20744;50.938;7.286;2022-11-25T14:51:11;14.95;;;2.72;;
34497;SDS011;20744;50.938;7.286;2022-11-25T14:53:39;18.35;;;3.38;;
34497;SDS011;20744;50.938;7.286;2022-11-25T14:56:08;17.65;;;3.25;;
34497;SDS011;20744;50.938;7.286;2022-11-25T14:58:38;13.73;;;2.63;;
34497;SDS011;20744;50.938;7.286;2022-11-25T15:01:06;7.70;;;2.28;;
34497;SDS011;20744;50.938;7.286;2022-11-25T15:03:33;12.05;;;2.58;;
34497;SDS011;20744;50.938;7.286;2022-11-25T15:06:03;12.60;;;2.40;;
34497;SDS011;20744;50.938;7.286;2022-11-25T15:08:36;12.27;;;2.78;;
34497;SDS011;20744;50.938;7.286;2022-11-25T15:11:04;19.30;;;3.30;;
34497;SDS011;20744;50.938;7.286;2022-11-25T15:13:32;10.93;;;2.92;;
34497;SDS011;20744;50.938;7.286;2022-11-25T15:16:04;17.77;;;3.25;;
34497;SDS011;20744;50.938;7.286;2022-11-25T15:18:32;12.27;;;2.60;;
34497;SDS011;20744;50.938;7.286;2022-11-25T15:21:00;15.80;;;2.60;;
34497;SDS011;20744;50.938;7.286;2022-11-25T15:23:30;14.82;;;2.85;;
34497;SDS011;20744;50.938;7.286;2022-11-25T15:25:59;15.23;;;3.50;;
34497;SDS011;20744;50.938;7.286;2022-11-25T15:28:31;17.80;;;3.45;;